Westbrook, CT

8:04 AM EST on January 30, 2015 (GMT -0500)
Chester | Change Station
CLOSE
Current Station
Airport
Location: Chester,
Elevation: 413 ft
Nearby Weather Stations
Active Advisory: Wind Advisory, Special Statement

Elev 413 ft 41.38 °N, 72.51 °W | Updated 9 minutes ago

Snow
Snow
32 °F
Feels Like 29 °F
N
4
Wind Variable Wind from West

Today
High -- | Low -- °F
--% Chance of Precip.
Yesterday
High -- | Low -- °F
Precip. -- in
7:03 AM 5:03 PM
Waxing Gibbous, 82% visible
Pressure 29.82 in
Visibility 2.5 miles
Clouds Mostly Cloudy 100 ft
Overcast 1100 ft
Windchill 29 °F
Dew Point 32 °F
Humidity 100%
Rainfall 0.22 in
Snow Depth Not available.
UV 0 out of 12
Pollen .10 out of 12
Air Quality Not available.
Flu Activity Not available.
METAR KSNC 301255Z AUTO 27003KT 2 1/2SM -SN BKN001 OVC011 00/00 A2982 RMK AO2 P0005

More Conditions Fewer Conditions

Pressure 29.82 in
Visibility 2.5 miles
Clouds Mostly Cloudy 100 ft
Overcast 1100 ft
Windchill 29 °F
Dew Point 32 °F
Humidity 100%
Rainfall 0.22 in
Snow Depth Not available.
UV 0 out of 12
Pollen .10 out of 12
Air Quality Not available.
Flu Activity Not available.
METAR KSNC 301255Z AUTO 27003KT 2 1/2SM -SN BKN001 OVC011 00/00 A2982 RMK AO2 P0005

More Conditions Fewer Conditions

10-Day Weather Forecast

Almanac

Astronomy

Jan. 30, 2015 Rise Set
Actual Time
Civil Twilight
Nautical Twilight
Astronomical Twilight
Moon
Length of Visible Light
Length of Day
Tomorrow will be .
, % of the Moon is Illuminated

Today's Extremes

State Highs State Lows

Community

WunderPhotos

Upload Photos

1,791,747 photos uploaded!

WunderBlogs® & News

Nearby

Air Quality

  Air Quality AQ Index Pollutant
Not available.

Snow Depth

Station Depth Elevation

Earthquake Activity

City Distance Mag. Time & Date
Minimum magnitude displayed is 2.5.

Coastal Water Temperatures

Place Temperature

Nearby Weather Stations